Terminal Aerodrome Forecast
Issued by NWS Sterling, VA

Home | Current Version | Previous Version | Text Only | Print | Product List | Glossary On
Versions: 1 2 3 4 5 6 7 8 9 10 11 12 13 14 15 16 17 18 19
000
FTUS41 KLWX 270538
TAFMRB
TAF
KMRB 270538Z 2706/2806 VRB03KT P6SM SCT050 OVC130
     FM270800 VRB03KT 3SM -RA BKN025 OVC050
     FM271200 VRB03KT 3SM -RA BKN008 OVC050
     FM271700 VRB04KT P6SM BKN025 BKN130
     FM272000 VRB04KT P6SM BKN050 BKN130
     FM280000 VRB04KT P6SM SCT050 SCT130=

USA.gov is the U.S. government's official web portal to all federal, state and local government web resources and services.